< < Back
Terminal Aerodrome Forecast


Current Version              Previous Versions:   1  2  3  4  5  6  7  8  9  

Terminal Aerodrome Forecast

854
FTUS42 KFFC 181900 AAA
TAFATL
TAF AMD
KATL 181949Z 1820/1924 34004KT P6SM SCT045 BKN070
     FM190500 02004KT P6SM SCT025
     FM191100 05008KT P6SM BKN008
     FM191400 08009KT P6SM SCT025
     FM191600 10011KT P6SM SCT040=



Latest METAR

311
SAUS70 KWBC 182200
MTRATL
METAR KATL 182152Z 00000KT 10SM SCT045 BKN250 28/17 A2995 RMK AO2 SLP134
T02780167


USA.gov is the U.S. government's official web portal to all federal, state and local government web resources and services.